sensor_id;sensor_type;location;lat;lon;timestamp;pressure;altitude;pressure_sealevel;temperature;humidity
16094;BME280;8151;47.824;12.092;2023-01-24T00:01:18;97501.94;;;0.30;82.71
16094;BME280;8151;47.824;12.092;2023-01-24T00:03:47;97500.16;;;0.31;82.79
16094;BME280;8151;47.824;12.092;2023-01-24T00:06:16;97495.91;;;0.30;82.82
16094;BME280;8151;47.824;12.092;2023-01-24T00:08:44;97497.56;;;0.31;82.54
16094;BME280;8151;47.824;12.092;2023-01-24T00:11:13;97498.31;;;0.33;82.63
16094;BME280;8151;47.824;12.092;2023-01-24T00:13:43;97498.25;;;0.34;82.56
16094;BME280;8151;47.824;12.092;2023-01-24T00:16:13;97491.28;;;0.35;82.88
16094;BME280;8151;47.824;12.092;2023-01-24T00:18:42;97495.59;;;0.36;82.52
16094;BME280;8151;47.824;12.092;2023-01-24T00:21:22;97498.94;;;0.38;82.51
16094;BME280;8151;47.824;12.092;2023-01-24T00:23:52;97504.16;;;0.38;82.54
16094;BME280;8151;47.824;12.092;2023-01-24T00:26:22;97505.84;;;0.39;82.84
16094;BME280;8151;47.824;12.092;2023-01-24T00:28:53;97510.13;;;0.40;82.50
16094;BME280;8151;47.824;12.092;2023-01-24T00:31:21;97510.13;;;0.40;82.84
16094;BME280;8151;47.824;12.092;2023-01-24T00:33:50;97513.50;;;0.42;82.48
16094;BME280;8151;47.824;12.092;2023-01-24T00:36:18;97513.50;;;0.42;82.42
16094;BME280;8151;47.824;12.092;2023-01-24T00:38:47;97516.03;;;0.44;82.67
16094;BME280;8151;47.824;12.092;2023-01-24T00:41:15;97519.47;;;0.44;82.76
16094;BME280;8151;47.824;12.092;2023-01-24T00:43:43;97509.03;;;0.44;82.67
16094;BME280;8151;47.824;12.092;2023-01-24T00:46:13;97510.75;;;0.45;82.75
16094;BME280;8151;47.824;12.092;2023-01-24T00:48:42;97515.94;;;0.45;82.67
16094;BME280;8151;47.824;12.092;2023-01-24T00:51:10;97510.81;;;0.44;82.35
16094;BME280;8151;47.824;12.092;2023-01-24T00:53:39;97515.25;;;0.42;82.73
16094;BME280;8151;47.824;12.092;2023-01-24T00:56:07;97512.78;;;0.38;82.51
16094;BME280;8151;47.824;12.092;2023-01-24T00:58:35;97524.97;;;0.38;82.18
16094;BME280;8151;47.824;12.092;2023-01-24T01:01:04;97521.53;;;0.37;82.32
16094;BME280;8151;47.824;12.092;2023-01-24T01:03:34;97529.34;;;0.37;82.73
16094;BME280;8151;47.824;12.092;2023-01-24T01:06:04;97520.78;;;0.35;82.36
16094;BME280;8151;47.824;12.092;2023-01-24T01:08:33;97538.25;;;0.33;82.18
16094;BME280;8151;47.824;12.092;2023-01-24T01:11:01;97520.16;;;0.30;82.34
16094;BME280;8151;47.824;12.092;2023-01-24T01:13:30;97537.53;;;0.30;82.49
16094;BME280;8151;47.824;12.092;2023-01-24T01:16:03;97541.91;;;0.29;82.37
16094;BME280;8151;47.824;12.092;2023-01-24T01:18:32;97541.91;;;0.29;82.26
16094;BME280;8151;47.824;12.092;2023-01-24T01:21:02;97542.81;;;0.28;81.94
16094;BME280;8151;47.824;12.092;2023-01-24T01:23:32;97543.66;;;0.29;82.32
16094;BME280;8151;47.824;12.092;2023-01-24T01:26:00;97535.00;;;0.28;82.02
16094;BME280;8151;47.824;12.092;2023-01-24T01:28:29;97539.31;;;0.29;82.14
16094;BME280;8151;47.824;12.092;2023-01-24T01:30:58;97540.91;;;0.32;82.39
16094;BME280;8151;47.824;12.092;2023-01-24T01:33:27;97540.84;;;0.33;81.99
16094;BME280;8151;47.824;12.092;2023-01-24T01:35:55;97537.38;;;0.33;82.47
16094;BME280;8151;47.824;12.092;2023-01-24T01:38:25;97539.97;;;0.33;82.09
16094;BME280;8151;47.824;12.092;2023-01-24T01:40:55;97533.03;;;0.33;82.04
16094;BME280;8151;47.824;12.092;2023-01-24T01:43:26;97536.47;;;0.34;81.74
16094;BME280;8151;47.824;12.092;2023-01-24T01:45:58;97538.31;;;0.32;82.15
16094;BME280;8151;47.824;12.092;2023-01-24T01:48:34;97533.09;;;0.32;81.93
16094;BME280;8151;47.824;12.092;2023-01-24T01:51:10;97536.53;;;0.32;82.28
16094;BME280;8151;47.824;12.092;2023-01-24T01:53:46;97540.91;;;0.32;81.99
16094;BME280;8151;47.824;12.092;2023-01-24T01:56:21;97536.53;;;0.32;81.84
16094;BME280;8151;47.824;12.092;2023-01-24T01:58:51;97532.34;;;0.30;82.12
16094;BME280;8151;47.824;12.092;2023-01-24T02:01:20;97528.03;;;0.29;81.87
16094;BME280;8151;47.824;12.092;2023-01-24T02:03:53;97535.00;;;0.28;81.94
16094;BME280;8151;47.824;12.092;2023-01-24T02:06:32;97540.22;;;0.28;81.66
16094;BME280;8151;47.824;12.092;2023-01-24T02:09:08;97537.75;;;0.25;81.57
16094;BME280;8151;47.824;12.092;2023-01-24T02:11:38;97536.97;;;0.23;81.48
16094;BME280;8151;47.824;12.092;2023-01-24T02:14:10;97541.34;;;0.23;81.65
16094;BME280;8151;47.824;12.092;2023-01-24T02:17:00;97531.94;;;0.20;81.52
16094;BME280;8151;47.824;12.092;2023-01-24T02:19:46;97539.00;;;0.18;81.46
16094;BME280;8151;47.824;12.092;2023-01-24T02:22:18;97536.53;;;0.15;81.69
16094;BME280;8151;47.824;12.092;2023-01-24T02:24:55;97533.22;;;0.11;81.26
16094;BME280;8151;47.824;12.092;2023-01-24T02:27:28;97543.63;;;0.11;81.33
16094;BME280;8151;47.824;12.092;2023-01-24T02:29:57;97541.03;;;0.11;81.29
16094;BME280;8151;47.824;12.092;2023-01-24T02:32:26;97540.19;;;0.11;81.54
16094;BME280;8151;47.824;12.092;2023-01-24T02:34:54;97543.63;;;0.11;81.58
16094;BME280;8151;47.824;12.092;2023-01-24T02:37:23;97529.84;;;0.09;81.34
16094;BME280;8151;47.824;12.092;2023-01-24T02:39:56;97531.69;;;0.07;81.25
16094;BME280;8151;47.824;12.092;2023-01-24T02:42:31;97531.75;;;0.06;81.36
16094;BME280;8151;47.824;12.092;2023-01-24T02:45:05;97534.38;;;0.06;81.27
16094;BME280;8151;47.824;12.092;2023-01-24T02:47:39;97530.03;;;0.06;81.05
16094;BME280;8151;47.824;12.092;2023-01-24T02:50:09;97528.25;;;0.07;81.23
16094;BME280;8151;47.824;12.092;2023-01-24T02:52:38;97527.41;;;0.06;81.42
16094;BME280;8151;47.824;12.092;2023-01-24T02:55:24;97528.31;;;0.05;81.08
16094;BME280;8151;47.824;12.092;2023-01-24T02:57:55;97529.25;;;0.04;81.09
16094;BME280;8151;47.824;12.092;2023-01-24T03:00:39;97534.47;;;0.04;81.32
16094;BME280;8151;47.824;12.092;2023-01-24T03:03:08;97539.56;;;0.06;81.19
16094;BME280;8151;47.824;12.092;2023-01-24T03:05:37;97537.84;;;0.06;81.12
16094;BME280;8151;47.824;12.092;2023-01-24T03:08:24;97542.94;;;0.08;80.81
16094;BME280;8151;47.824;12.092;2023-01-24T03:10:53;97548.13;;;0.08;81.10
16094;BME280;8151;47.824;12.092;2023-01-24T03:13:24;97543.09;;;0.05;80.87
16094;BME280;8151;47.824;12.092;2023-01-24T03:16:11;97551.03;;;0.02;80.97
16094;BME280;8151;47.824;12.092;2023-01-24T03:18:58;97548.59;;;-0.02;81.08
16094;BME280;8151;47.824;12.092;2023-01-24T03:21:43;97546.97;;;-0.04;80.93
16094;BME280;8151;47.824;12.092;2023-01-24T03:24:30;97548.97;;;-0.09;81.01
16094;BME280;8151;47.824;12.092;2023-01-24T03:27:16;97543.91;;;-0.12;80.69
16094;BME280;8151;47.824;12.092;2023-01-24T03:30:04;97552.63;;;-0.13;80.63
16094;BME280;8151;47.824;12.092;2023-01-24T03:32:51;97552.53;;;-0.12;80.87
16094;BME280;8151;47.824;12.092;2023-01-24T03:35:37;97549.16;;;-0.14;80.48
16094;BME280;8151;47.824;12.092;2023-01-24T03:38:05;97558.69;;;-0.13;80.44
16094;BME280;8151;47.824;12.092;2023-01-24T03:40:56;97552.53;;;-0.12;80.42
16094;BME280;8151;47.824;12.092;2023-01-24T03:43:25;97556.00;;;-0.11;80.64
16094;BME280;8151;47.824;12.092;2023-01-24T03:45:54;97551.72;;;-0.12;80.56
16094;BME280;8151;47.824;12.092;2023-01-24T03:48:23;97552.63;;;-0.13;80.34
16094;BME280;8151;47.824;12.092;2023-01-24T03:50:53;97550.88;;;-0.13;80.39
16094;BME280;8151;47.824;12.092;2023-01-24T03:53:39;97550.94;;;-0.14;80.39
16094;BME280;8151;47.824;12.092;2023-01-24T03:56:08;97553.53;;;-0.14;80.64
16094;BME280;8151;47.824;12.092;2023-01-24T03:58:36;97556.19;;;-0.16;80.28
16094;BME280;8151;47.824;12.092;2023-01-24T04:01:07;97549.28;;;-0.15;80.30
16094;BME280;8151;47.824;12.092;2023-01-24T04:03:35;97550.94;;;-0.14;80.41
16094;BME280;8151;47.824;12.092;2023-01-24T04:06:04;97553.47;;;-0.13;80.55
16094;BME280;8151;47.824;12.092;2023-01-24T04:08:32;97550.81;;;-0.11;80.26
16094;BME280;8151;47.824;12.092;2023-01-24T04:11:01;97548.22;;;-0.11;80.13
16094;BME280;8151;47.824;12.092;2023-01-24T04:13:29;97555.06;;;-0.10;80.36
16094;BME280;8151;47.824;12.092;2023-01-24T04:15:57;97548.03;;;-0.08;80.48
16094;BME280;8151;47.824;12.092;2023-01-24T04:18:27;97552.34;;;-0.07;80.37
16094;BME280;8151;47.824;12.092;2023-01-24T04:20:55;97558.44;;;-0.08;80.46
16094;BME280;8151;47.824;12.092;2023-01-24T04:23:24;97561.03;;;-0.08;79.87
16094;BME280;8151;47.824;12.092;2023-01-24T04:25:52;97564.41;;;-0.06;80.14
16094;BME280;8151;47.824;12.092;2023-01-24T04:28:24;97562.69;;;-0.06;80.41
16094;BME280;8151;47.824;12.092;2023-01-24T04:30:56;97557.53;;;-0.07;80.32
16094;BME280;8151;47.824;12.092;2023-01-24T04:33:27;97551.50;;;-0.08;80.45
16094;BME280;8151;47.824;12.092;2023-01-24T04:35:56;97558.44;;;-0.08;80.31
16094;BME280;8151;47.824;12.092;2023-01-24T04:38:25;97555.78;;;-0.07;80.41
16094;BME280;8151;47.824;12.092;2023-01-24T04:40:58;97548.81;;;-0.06;80.17
16094;BME280;8151;47.824;12.092;2023-01-24T04:43:26;97560.06;;;-0.06;80.48
16094;BME280;8151;47.824;12.092;2023-01-24T04:45:55;97563.59;;;-0.07;80.39
16094;BME280;8151;47.824;12.092;2023-01-24T04:48:24;97564.59;;;-0.09;80.26
16094;BME280;8151;47.824;12.092;2023-01-24T04:50:58;97565.47;;;-0.10;80.35
16094;BME280;8151;47.824;12.092;2023-01-24T04:53:27;97582.84;;;-0.11;80.40
16094;BME280;8151;47.824;12.092;2023-01-24T04:55:59;97574.34;;;-0.14;80.28
16094;BME280;8151;47.824;12.092;2023-01-24T04:58:28;97580.56;;;-0.17;80.27
16094;BME280;8151;47.824;12.092;2023-01-24T05:00:56;97565.06;;;-0.20;80.30
16094;BME280;8151;47.824;12.092;2023-01-24T05:03:26;97572.03;;;-0.21;80.54
16094;BME280;8151;47.824;12.092;2023-01-24T05:05:55;97575.53;;;-0.22;80.30
16094;BME280;8151;47.824;12.092;2023-01-24T05:08:25;97582.50;;;-0.22;80.01
16094;BME280;8151;47.824;12.092;2023-01-24T05:10:54;97581.63;;;-0.21;80.09
16094;BME280;8151;47.824;12.092;2023-01-24T05:13:22;97589.41;;;-0.21;80.23
16094;BME280;8151;47.824;12.092;2023-01-24T05:15:51;97585.03;;;-0.21;80.38
16094;BME280;8151;47.824;12.092;2023-01-24T05:18:20;97581.50;;;-0.20;80.42
16094;BME280;8151;47.824;12.092;2023-01-24T05:20:48;97584.13;;;-0.20;80.07
16094;BME280;8151;47.824;12.092;2023-01-24T05:23:19;97588.47;;;-0.20;80.10
16094;BME280;8151;47.824;12.092;2023-01-24T05:25:49;97587.59;;;-0.19;80.33
16094;BME280;8151;47.824;12.092;2023-01-24T05:28:26;97589.41;;;-0.21;80.30
16094;BME280;8151;47.824;12.092;2023-01-24T05:30:57;97591.91;;;-0.20;79.98
16094;BME280;8151;47.824;12.092;2023-01-24T05:33:26;97589.31;;;-0.20;80.27
16094;BME280;8151;47.824;12.092;2023-01-24T05:35:58;97586.72;;;-0.20;80.41
16094;BME280;8151;47.824;12.092;2023-01-24T05:38:27;97587.66;;;-0.21;80.17
16094;BME280;8151;47.824;12.092;2023-01-24T05:41:00;97591.16;;;-0.22;79.80
16094;BME280;8151;47.824;12.092;2023-01-24T05:43:29;97600.78;;;-0.24;80.24
16094;BME280;8151;47.824;12.092;2023-01-24T05:45:58;97593.91;;;-0.25;79.92
16094;BME280;8151;47.824;12.092;2023-01-24T05:48:27;97607.97;;;-0.29;79.73
16094;BME280;8151;47.824;12.092;2023-01-24T05:50:57;97604.59;;;-0.31;80.01
16094;BME280;8151;47.824;12.092;2023-01-24T05:53:26;97620.03;;;-0.28;80.16
16094;BME280;8151;47.824;12.092;2023-01-24T05:55:56;97620.03;;;-0.28;79.79
16094;BME280;8151;47.824;12.092;2023-01-24T05:58:29;97621.88;;;-0.30;79.73
16094;BME280;8151;47.824;12.092;2023-01-24T06:00:58;97622.81;;;-0.31;79.79
16094;BME280;8151;47.824;12.092;2023-01-24T06:03:26;97620.34;;;-0.34;80.08
16094;BME280;8151;47.824;12.092;2023-01-24T06:05:55;97622.09;;;-0.34;79.95
16094;BME280;8151;47.824;12.092;2023-01-24T06:08:23;97621.31;;;-0.36;79.76
16094;BME280;8151;47.824;12.092;2023-01-24T06:10:52;97624.88;;;-0.39;79.67
16094;BME280;8151;47.824;12.092;2023-01-24T06:13:21;97621.38;;;-0.38;79.96
16094;BME280;8151;47.824;12.092;2023-01-24T06:15:51;97635.28;;;-0.39;80.02
16094;BME280;8151;47.824;12.092;2023-01-24T06:18:19;97635.44;;;-0.42;79.72
16094;BME280;8151;47.824;12.092;2023-01-24T06:20:48;97628.53;;;-0.43;79.91
16094;BME280;8151;47.824;12.092;2023-01-24T06:23:23;97629.53;;;-0.46;79.75
16094;BME280;8151;47.824;12.092;2023-01-24T06:25:52;97633.13;;;-0.48;79.87
16094;BME280;8151;47.824;12.092;2023-01-24T06:28:22;97636.63;;;-0.49;79.83
16094;BME280;8151;47.824;12.092;2023-01-24T06:31:00;97634.94;;;-0.50;79.91
16094;BME280;8151;47.824;12.092;2023-01-24T06:33:41;97641.00;;;-0.50;79.81
16094;BME280;8151;47.824;12.092;2023-01-24T06:36:24;97631.47;;;-0.51;79.53
16094;BME280;8151;47.824;12.092;2023-01-24T06:38:56;97642.75;;;-0.50;79.63
16094;BME280;8151;47.824;12.092;2023-01-24T06:41:25;97640.16;;;-0.50;79.58
16094;BME280;8151;47.824;12.092;2023-01-24T06:43:54;97647.84;;;-0.49;79.41
16094;BME280;8151;47.824;12.092;2023-01-24T06:46:24;97641.81;;;-0.49;79.57
16094;BME280;8151;47.824;12.092;2023-01-24T06:48:52;97647.94;;;-0.50;79.47
16094;BME280;8151;47.824;12.092;2023-01-24T06:51:21;97655.81;;;-0.52;79.65
16094;BME280;8151;47.824;12.092;2023-01-24T06:53:49;97649.78;;;-0.52;79.63
16094;BME280;8151;47.824;12.092;2023-01-24T06:56:18;97656.66;;;-0.51;79.30
16094;BME280;8151;47.824;12.092;2023-01-24T06:58:46;97654.97;;;-0.52;79.45
16094;BME280;8151;47.824;12.092;2023-01-24T07:01:15;97654.09;;;-0.53;79.36
16094;BME280;8151;47.824;12.092;2023-01-24T07:03:44;97663.63;;;-0.52;79.40
16094;BME280;8151;47.824;12.092;2023-01-24T07:06:13;97655.88;;;-0.53;79.36
16094;BME280;8151;47.824;12.092;2023-01-24T07:08:42;97656.00;;;-0.56;79.40
16094;BME280;8151;47.824;12.092;2023-01-24T07:11:10;97655.22;;;-0.58;79.40
16094;BME280;8151;47.824;12.092;2023-01-24T07:13:39;97663.03;;;-0.58;79.43
16094;BME280;8151;47.824;12.092;2023-01-24T07:16:07;97664.72;;;-0.57;79.60
16094;BME280;8151;47.824;12.092;2023-01-24T07:18:36;97665.56;;;-0.57;79.39
16094;BME280;8151;47.824;12.092;2023-01-24T07:21:07;97657.81;;;-0.58;79.47
16094;BME280;8151;47.824;12.092;2023-01-24T07:23:37;97665.63;;;-0.58;79.66
16094;BME280;8151;47.824;12.092;2023-01-24T07:26:08;97665.72;;;-0.60;79.61
16094;BME280;8151;47.824;12.092;2023-01-24T07:28:38;97681.22;;;-0.58;79.43
16094;BME280;8151;47.824;12.092;2023-01-24T07:31:06;97672.66;;;-0.61;79.35
16094;BME280;8151;47.824;12.092;2023-01-24T07:33:35;97675.19;;;-0.59;79.63
16094;BME280;8151;47.824;12.092;2023-01-24T07:36:12;97673.41;;;-0.58;79.45
16094;BME280;8151;47.824;12.092;2023-01-24T07:38:41;97680.31;;;-0.57;79.56
16094;BME280;8151;47.824;12.092;2023-01-24T07:41:10;97674.34;;;-0.60;79.30
16094;BME280;8151;47.824;12.092;2023-01-24T07:43:38;97676.88;;;-0.58;79.27
16094;BME280;8151;47.824;12.092;2023-01-24T07:46:06;97682.84;;;-0.56;79.45
16094;BME280;8151;47.824;12.092;2023-01-24T07:48:35;97678.50;;;-0.55;79.24
16094;BME280;8151;47.824;12.092;2023-01-24T07:51:04;97687.91;;;-0.53;79.22
16094;BME280;8151;47.824;12.092;2023-01-24T07:53:33;97674.84;;;-0.51;79.35
16094;BME280;8151;47.824;12.092;2023-01-24T07:56:03;97685.19;;;-0.50;79.27
16094;BME280;8151;47.824;12.092;2023-01-24T07:58:34;97697.25;;;-0.49;79.28
16094;BME280;8151;47.824;12.092;2023-01-24T08:01:03;97695.44;;;-0.47;79.27
16094;BME280;8151;47.824;12.092;2023-01-24T08:03:31;97702.41;;;-0.47;79.25
16094;BME280;8151;47.824;12.092;2023-01-24T08:06:03;97705.00;;;-0.47;79.08
16094;BME280;8151;47.824;12.092;2023-01-24T08:08:32;97705.00;;;-0.47;79.09
16094;BME280;8151;47.824;12.092;2023-01-24T08:11:01;97704.88;;;-0.44;79.04
16094;BME280;8151;47.824;12.092;2023-01-24T08:13:30;97708.19;;;-0.41;79.28
16094;BME280;8151;47.824;12.092;2023-01-24T08:15:59;97708.03;;;-0.37;79.27
16094;BME280;8151;47.824;12.092;2023-01-24T08:18:27;97712.28;;;-0.35;78.75
16094;BME280;8151;47.824;12.092;2023-01-24T08:20:56;97710.38;;;-0.31;78.91
16094;BME280;8151;47.824;12.092;2023-01-24T08:23:25;97710.19;;;-0.27;79.05
16094;BME280;8151;47.824;12.092;2023-01-24T08:25:53;97722.13;;;-0.23;79.01
16094;BME280;8151;47.824;12.092;2023-01-24T08:28:23;97721.09;;;-0.18;78.65
16094;BME280;8151;47.824;12.092;2023-01-24T08:30:52;97717.50;;;-0.16;78.96
16094;BME280;8151;47.824;12.092;2023-01-24T08:33:21;97720.81;;;-0.12;78.62
16094;BME280;8151;47.824;12.092;2023-01-24T08:35:50;97711.16;;;-0.10;78.80
16094;BME280;8151;47.824;12.092;2023-01-24T08:38:18;97721.38;;;-0.06;78.75
16094;BME280;8151;47.824;12.092;2023-01-24T08:40:46;97730.75;;;-0.02;78.93
16094;BME280;8151;47.824;12.092;2023-01-24T08:43:17;97728.06;;;0.00;78.70
16094;BME280;8151;47.824;12.092;2023-01-24T08:45:47;97729.81;;;-0.01;78.80
16094;BME280;8151;47.824;12.092;2023-01-24T08:48:15;97734.94;;;0.01;78.51
16094;BME280;8151;47.824;12.092;2023-01-24T08:50:43;97735.00;;;-0.01;78.74
16094;BME280;8151;47.824;12.092;2023-01-24T08:53:12;97733.28;;;0.00;78.90
16094;BME280;8151;47.824;12.092;2023-01-24T08:55:51;97732.34;;;0.01;78.89
16094;BME280;8151;47.824;12.092;2023-01-24T08:58:20;97733.28;;;0.00;78.58
16094;BME280;8151;47.824;12.092;2023-01-24T09:00:50;97734.19;;;-0.01;78.86
16094;BME280;8151;47.824;12.092;2023-01-24T09:03:18;97739.44;;;-0.03;78.63
16094;BME280;8151;47.824;12.092;2023-01-24T09:05:47;97743.69;;;0.00;78.74
16094;BME280;8151;47.824;12.092;2023-01-24T09:08:15;97743.53;;;0.03;78.42
16094;BME280;8151;47.824;12.092;2023-01-24T09:10:44;97750.28;;;0.07;78.83
16094;BME280;8151;47.824;12.092;2023-01-24T09:13:13;97751.78;;;0.13;78.66
16094;BME280;8151;47.824;12.092;2023-01-24T09:15:41;97753.31;;;0.17;78.56
16094;BME280;8151;47.824;12.092;2023-01-24T09:18:11;97751.41;;;0.21;78.61
16094;BME280;8151;47.824;12.092;2023-01-24T09:20:39;97752.91;;;0.26;78.34
16094;BME280;8151;47.824;12.092;2023-01-24T09:23:08;97754.44;;;0.30;78.44
16094;BME280;8151;47.824;12.092;2023-01-24T09:25:38;97754.22;;;0.35;78.06
16094;BME280;8151;47.824;12.092;2023-01-24T09:28:07;97752.44;;;0.37;78.31
16094;BME280;8151;47.824;12.092;2023-01-24T09:30:36;97765.22;;;0.42;78.05
16094;BME280;8151;47.824;12.092;2023-01-24T09:33:05;97758.19;;;0.44;78.28
16094;BME280;8151;47.824;12.092;2023-01-24T09:35:35;97765.09;;;0.45;78.26
16094;BME280;8151;47.824;12.092;2023-01-24T09:38:03;97759.19;;;0.41;78.33
16094;BME280;8151;47.824;12.092;2023-01-24T09:40:41;97766.22;;;0.39;78.38
16094;BME280;8151;47.824;12.092;2023-01-24T09:43:15;97759.31;;;0.38;78.21
16094;BME280;8151;47.824;12.092;2023-01-24T09:45:56;97757.53;;;0.38;78.03
16094;BME280;8151;47.824;12.092;2023-01-24T09:48:26;97758.31;;;0.41;77.95
16094;BME280;8151;47.824;12.092;2023-01-24T09:50:59;97763.38;;;0.44;78.18
16094;BME280;8151;47.824;12.092;2023-01-24T09:53:34;97762.50;;;0.45;78.08
16094;BME280;8151;47.824;12.092;2023-01-24T09:56:06;97763.31;;;0.45;78.18
16094;BME280;8151;47.824;12.092;2023-01-24T09:58:39;97763.09;;;0.50;78.13
16094;BME280;8151;47.824;12.092;2023-01-24T10:01:12;97760.19;;;0.56;77.88
16094;BME280;8151;47.824;12.092;2023-01-24T10:03:51;97751.19;;;0.63;77.70
16094;BME280;8151;47.824;12.092;2023-01-24T10:06:24;97757.75;;;0.72;77.67
16094;BME280;8151;47.824;12.092;2023-01-24T10:09:02;97762.50;;;0.81;77.52
16094;BME280;8151;47.824;12.092;2023-01-24T10:11:46;97760.09;;;0.95;77.58
16094;BME280;8151;47.824;12.092;2023-01-24T10:14:38;97765.53;;;1.08;77.30
16094;BME280;8151;47.824;12.092;2023-01-24T10:17:32;97754.72;;;1.16;77.35
16094;BME280;8151;47.824;12.092;2023-01-24T10:20:17;97754.41;;;1.22;77.14
16094;BME280;8151;47.824;12.092;2023-01-24T10:23:06;97748.75;;;1.31;76.92
16094;BME280;8151;47.824;12.092;2023-01-24T10:25:49;97741.09;;;1.46;76.89
16094;BME280;8151;47.824;12.092;2023-01-24T10:28:24;97739.63;;;1.57;76.62
16094;BME280;8151;47.824;12.092;2023-01-24T10:31:06;97736.31;;;1.71;76.75
16094;BME280;8151;47.824;12.092;2023-01-24T10:33:41;97731.38;;;1.83;76.34
16094;BME280;8151;47.824;12.092;2023-01-24T10:36:17;97734.28;;;1.94;76.28
16094;BME280;8151;47.824;12.092;2023-01-24T10:38:50;97729.41;;;2.04;76.18
16094;BME280;8151;47.824;12.092;2023-01-24T10:41:21;97737.34;;;2.18;76.07
16094;BME280;8151;47.824;12.092;2023-01-24T10:43:53;97735.81;;;2.30;76.00
16094;BME280;8151;47.824;12.092;2023-01-24T10:49:23;97733.56;;;2.55;76.09
16094;BME280;8151;47.824;12.092;2023-01-24T10:52:13;97734.84;;;2.64;75.52
16094;BME280;8151;47.824;12.092;2023-01-24T10:54:49;97739.72;;;2.70;75.73
16094;BME280;8151;47.824;12.092;2023-01-24T10:57:29;97736.84;;;2.75;75.64
16094;BME280;8151;47.824;12.092;2023-01-24T11:00:16;97734.97;;;2.77;75.60
16094;BME280;8151;47.824;12.092;2023-01-24T11:02:47;97729.66;;;2.79;75.73
16094;BME280;8151;47.824;12.092;2023-01-24T11:05:18;97727.72;;;2.82;75.68
16094;BME280;8151;47.824;12.092;2023-01-24T11:07:58;97715.25;;;2.87;75.23
16094;BME280;8151;47.824;12.092;2023-01-24T11:10:34;97718.09;;;2.99;75.32
16094;BME280;8151;47.824;12.092;2023-01-24T11:13:27;97714.78;;;3.11;74.79
16094;BME280;8151;47.824;12.092;2023-01-24T11:16:00;97717.50;;;3.24;75.01
16094;BME280;8151;47.824;12.092;2023-01-24T11:18:30;97710.16;;;3.30;74.88
16094;BME280;8151;47.824;12.092;2023-01-24T11:21:12;97706.59;;;3.31;74.61
16094;BME280;8151;47.824;12.092;2023-01-24T11:23:41;97708.56;;;3.28;74.78
16094;BME280;8151;47.824;12.092;2023-01-24T11:26:23;97709.56;;;3.25;74.61
16094;BME280;8151;47.824;12.092;2023-01-24T11:28:57;97706.78;;;3.28;74.75
16094;BME280;8151;47.824;12.092;2023-01-24T11:31:30;97704.63;;;3.35;74.71
16094;BME280;8151;47.824;12.092;2023-01-24T11:37:26;97699.53;;;3.48;74.37
16094;BME280;8151;47.824;12.092;2023-01-24T11:40:09;97698.69;;;3.47;74.46
16094;BME280;8151;47.824;12.092;2023-01-24T11:42:50;97702.25;;;3.46;74.42
16094;BME280;8151;47.824;12.092;2023-01-24T11:45:36;97709.50;;;3.41;74.45
16094;BME280;8151;47.824;12.092;2023-01-24T11:48:17;97704.63;;;3.35;74.76
16094;BME280;8151;47.824;12.092;2023-01-24T11:50:56;97709.13;;;3.33;74.77
16094;BME280;8151;47.824;12.092;2023-01-24T11:53:52;97705.09;;;3.27;74.80
16094;BME280;8151;47.824;12.092;2023-01-24T11:56:29;97702.75;;;3.23;74.83
16094;BME280;8151;47.824;12.092;2023-01-24T11:59:24;97692.75;;;3.15;74.71
16094;BME280;8151;47.824;12.092;2023-01-24T12:02:06;97698.25;;;3.10;74.82
16094;BME280;8151;47.824;12.092;2023-01-24T12:04:59;97701.84;;;3.08;74.94
16094;BME280;8151;47.824;12.092;2023-01-24T12:07:39;97702.72;;;3.08;75.02
16094;BME280;8151;47.824;12.092;2023-01-24T12:10:20;97702.06;;;3.05;74.96
16094;BME280;8151;47.824;12.092;2023-01-24T12:12:55;97697.00;;;3.02;75.03
16094;BME280;8151;47.824;12.092;2023-01-24T12:15:35;97693.53;;;3.01;75.09
16094;BME280;8151;47.824;12.092;2023-01-24T12:18:24;97692.78;;;2.99;75.00
16094;BME280;8151;47.824;12.092;2023-01-24T12:20:59;97691.09;;;2.98;75.01
16094;BME280;8151;47.824;12.092;2023-01-24T12:23:35;97693.03;;;2.94;74.82
16094;BME280;8151;47.824;12.092;2023-01-24T12:26:11;97688.84;;;2.92;75.09
16094;BME280;8151;47.824;12.092;2023-01-24T12:28:48;97692.47;;;2.89;75.30
16094;BME280;8151;47.824;12.092;2023-01-24T12:31:26;97689.09;;;2.87;74.92
16094;BME280;8151;47.824;12.092;2023-01-24T12:34:02;97684.88;;;2.85;74.89
16094;BME280;8151;47.824;12.092;2023-01-24T12:36:39;97689.34;;;2.83;74.94
16094;BME280;8151;47.824;12.092;2023-01-24T12:39:12;97678.13;;;2.81;74.94
16094;BME280;8151;47.824;12.092;2023-01-24T12:41:44;97679.94;;;2.80;74.86
16094;BME280;8151;47.824;12.092;2023-01-24T12:44:24;97676.47;;;2.80;75.02
16094;BME280;8151;47.824;12.092;2023-01-24T12:47:04;97675.81;;;2.76;74.93
16094;BME280;8151;47.824;12.092;2023-01-24T12:49:46;97671.59;;;2.73;74.96
16094;BME280;8151;47.824;12.092;2023-01-24T12:52:23;97675.88;;;2.74;74.99
16094;BME280;8151;47.824;12.092;2023-01-24T12:55:00;97668.88;;;2.75;75.01
16094;BME280;8151;47.824;12.092;2023-01-24T12:57:35;97669.75;;;2.75;75.30
16094;BME280;8151;47.824;12.092;2023-01-24T13:00:14;97668.88;;;2.75;74.93
16094;BME280;8151;47.824;12.092;2023-01-24T13:02:54;97661.97;;;2.74;74.93
16094;BME280;8151;47.824;12.092;2023-01-24T13:05:38;97663.56;;;2.76;75.21
16094;BME280;8151;47.824;12.092;2023-01-24T13:08:20;97667.00;;;2.77;75.36
16094;BME280;8151;47.824;12.092;2023-01-24T13:11:00;97666.38;;;2.73;75.14
16094;BME280;8151;47.824;12.092;2023-01-24T13:13:32;97669.22;;;2.69;75.56
16094;BME280;8151;47.824;12.092;2023-01-24T13:16:16;97669.22;;;2.69;75.53
16094;BME280;8151;47.824;12.092;2023-01-24T13:19:01;97662.16;;;2.71;75.44
16094;BME280;8151;47.824;12.092;2023-01-24T13:21:39;97667.38;;;2.71;75.55
16094;BME280;8151;47.824;12.092;2023-01-24T13:24:29;97658.22;;;2.64;75.57
16094;BME280;8151;47.824;12.092;2023-01-24T13:27:24;97657.78;;;2.55;75.81
16094;BME280;8151;47.824;12.092;2023-01-24T13:32:50;97657.09;;;2.52;75.96
16094;BME280;8151;47.824;12.092;2023-01-24T13:35:23;97651.06;;;2.51;75.92
16094;BME280;8151;47.824;12.092;2023-01-24T13:37:53;97654.69;;;2.49;76.13
16094;BME280;8151;47.824;12.092;2023-01-24T13:40:26;97654.94;;;2.44;76.29
16094;BME280;8151;47.824;12.092;2023-01-24T13:42:57;97649.69;;;2.44;76.37
16094;BME280;8151;47.824;12.092;2023-01-24T13:45:47;97656.78;;;2.42;76.29
16094;BME280;8151;47.824;12.092;2023-01-24T13:48:46;97653.53;;;2.39;76.32